createdAt,value
2019-02-12T00:00:13.595Z,102093.23
2019-02-12T00:01:17.307Z,102102.05
2019-02-12T00:02:20.796Z,102105.89
2019-02-12T00:03:24.327Z,102105.08
2019-02-12T00:04:27.909Z,102117.14
2019-02-12T00:05:31.427Z,102112.75
2019-02-12T00:06:34.924Z,102119.61
2019-02-12T00:07:38.513Z,102118.49
2019-02-12T00:08:42.016Z,102122.34
2019-02-12T00:09:45.707Z,102123.17
2019-02-12T00:10:49.195Z,102132.52
2019-02-12T00:11:52.698Z,102138.02
2019-02-12T00:12:56.222Z,102136.37
2019-02-12T00:13:59.773Z,102139.67
2019-02-12T00:15:04.406Z,102140.22
2019-02-12T00:16:07.921Z,102144.89
2019-02-12T00:17:11.400Z,102141.33
2019-02-12T00:18:14.893Z,102130.88
2019-02-12T00:19:18.501Z,102149.84
2019-02-12T00:20:22.033Z,102148.20
2019-02-12T00:21:25.603Z,102149.02
2019-02-12T00:22:29.088Z,102150.68
2019-02-12T00:23:32.675Z,102152.05
2019-02-12T00:24:37.033Z,102159.47
2019-02-12T00:25:40.675Z,102163.59
2019-02-12T00:26:44.259Z,102170.75
2019-02-12T00:27:47.825Z,102173.77
2019-02-12T00:28:51.368Z,102169.37
2019-02-12T00:29:54.897Z,102164.43
2019-02-12T00:30:58.376Z,102170.48
2019-02-12T00:32:01.999Z,102160.04
2019-02-12T00:33:06.040Z,102168.83
2019-02-12T00:34:09.529Z,102167.45
2019-02-12T00:35:13.136Z,102164.16
2019-02-12T00:36:16.656Z,102165.81
2019-02-12T00:37:20.344Z,102165.55
2019-02-12T00:38:23.975Z,102163.87
2019-02-12T00:39:27.460Z,102164.97
2019-02-12T00:40:30.965Z,102170.73
2019-02-12T00:41:34.489Z,102163.59
2019-02-12T00:42:37.958Z,102163.33
2019-02-12T00:43:41.546Z,102164.70
2019-02-12T00:44:45.132Z,102160.04
2019-02-12T00:45:48.703Z,102171.30
2019-02-12T00:46:52.295Z,102166.89
2019-02-12T00:47:55.773Z,102160.04
2019-02-12T00:48:59.350Z,102162.78
2019-02-12T00:50:02.923Z,102169.92
2019-02-12T00:51:06.515Z,102163.89
2019-02-12T00:52:09.999Z,102166.63
2019-02-12T00:53:13.505Z,102164.72
2019-02-12T00:54:16.990Z,102166.91
2019-02-12T00:55:20.504Z,102167.47
2019-02-12T00:56:24.138Z,102174.61
2019-02-12T00:57:27.618Z,102172.14
2019-02-12T00:58:31.198Z,102176.81
2019-02-12T00:59:34.745Z,102179.55
2019-02-12T01:00:38.322Z,102180.38
2019-02-12T01:01:41.945Z,102187.52
2019-02-12T01:02:45.422Z,102180.66
2019-02-12T01:03:49.002Z,102186.70
2019-02-12T01:04:52.563Z,102185.87
2019-02-12T01:05:56.175Z,102185.33
2019-02-12T01:06:59.739Z,102179.56
2019-02-12T01:08:03.349Z,102178.19
2019-02-12T01:09:07.381Z,102180.39
2019-02-12T01:10:12.085Z,102173.53
2019-02-12T01:11:15.565Z,102180.39
2019-02-12T01:12:19.102Z,102175.45
2019-02-12T01:13:22.577Z,102177.92
2019-02-12T01:14:26.105Z,102177.38
2019-02-12T01:15:29.696Z,102177.62
2019-02-12T01:16:33.246Z,102177.62
2019-02-12T01:17:36.841Z,102181.74
2019-02-12T01:18:40.441Z,102187.23
2019-02-12T01:19:44.005Z,102186.97
2019-02-12T01:20:47.497Z,102182.84
2019-02-12T01:21:51.004Z,102188.89
2019-02-12T01:22:54.550Z,102192.45
2019-02-12T01:23:58.120Z,102188.06
2019-02-12T01:25:01.737Z,102189.44
2019-02-12T01:26:05.262Z,102192.19
2019-02-12T01:27:08.957Z,102188.62
2019-02-12T01:28:12.506Z,102192.47
2019-02-12T01:29:15.969Z,102193.28
2019-02-12T01:30:19.570Z,102195.77
2019-02-12T01:31:23.154Z,102191.64
2019-02-12T01:32:26.711Z,102193.02
2019-02-12T01:33:30.422Z,102188.89
2019-02-12T01:34:33.980Z,102191.38
2019-02-12T01:35:37.530Z,102196.31
2019-02-12T01:36:41.038Z,102188.35
2019-02-12T01:37:44.690Z,102191.38
2019-02-12T01:38:48.234Z,102192.20
2019-02-12T01:39:51.736Z,102195.50
2019-02-12T01:40:55.302Z,102196.05
2019-02-12T01:41:58.871Z,102196.05
2019-02-12T01:43:02.409Z,102197.42
2019-02-12T01:44:05.985Z,102191.11
2019-02-12T01:45:11.266Z,102192.20
2019-02-12T01:46:14.779Z,102192.48
2019-02-12T01:47:18.311Z,102196.33
2019-02-12T01:48:21.832Z,102195.50
2019-02-12T01:49:25.330Z,102196.33
2019-02-12T01:50:28.854Z,102190.56
2019-02-12T01:51:35.148Z,102186.72
2019-02-12T01:52:37.677Z,102184.25
2019-02-12T01:53:41.200Z,102195.78
2019-02-12T01:54:44.710Z,102194.14
2019-02-12T01:55:48.285Z,102190.84
2019-02-12T01:56:51.792Z,102196.06
2019-02-12T01:57:55.264Z,102194.69
2019-02-12T01:58:58.777Z,102193.86
2019-02-12T02:00:02.422Z,102190.56
2019-02-12T02:01:07.602Z,102185.32
2019-02-12T02:02:11.124Z,102183.67
2019-02-12T02:03:14.746Z,102191.91
2019-02-12T02:04:18.290Z,102194.66
2019-02-12T02:05:21.840Z,102198.78
2019-02-12T02:06:25.460Z,102193.84
2019-02-12T02:07:28.972Z,102189.72
2019-02-12T02:08:32.602Z,102193.02
2019-02-12T02:09:36.099Z,102193.29
2019-02-12T02:10:39.656Z,102190.83
2019-02-12T02:11:43.256Z,102202.91
2019-02-12T02:12:46.934Z,102202.08
2019-02-12T02:13:50.430Z,102199.06
2019-02-12T02:14:53.987Z,102194.94
2019-02-12T02:15:57.548Z,102192.20
2019-02-12T02:17:01.078Z,102192.20
2019-02-12T02:18:04.561Z,102196.59
2019-02-12T02:19:08.153Z,102192.47
2019-02-12T02:20:13.822Z,102193.84
2019-02-12T02:21:17.353Z,102200.71
2019-02-12T02:22:20.925Z,102194.39
2019-02-12T02:23:24.423Z,102198.80
2019-02-12T02:24:27.944Z,102202.91
2019-02-12T02:25:31.511Z,102201.27
2019-02-12T02:26:35.021Z,102201.54
2019-02-12T02:27:38.595Z,102205.38
2019-02-12T02:28:44.843Z,102199.89
2019-02-12T02:29:48.369Z,102201.81
2019-02-12T02:30:51.820Z,102200.44
2019-02-12T02:31:55.342Z,102196.33
2019-02-12T02:32:58.832Z,102200.17
2019-02-12T02:34:02.322Z,102200.17
2019-02-12T02:35:06.454Z,102197.98
2019-02-12T02:36:09.943Z,102202.09
2019-02-12T02:37:13.460Z,102197.98
2019-02-12T02:38:17.035Z,102193.00
2019-02-12T02:39:20.526Z,102193.31
2019-02-12T02:40:24.041Z,102194.38
2019-02-12T02:41:27.527Z,102199.31
2019-02-12T02:42:31.042Z,102197.67
2019-02-12T02:43:34.603Z,102198.50
2019-02-12T02:44:38.089Z,102200.42
2019-02-12T02:45:41.595Z,102202.61
2019-02-12T02:46:45.177Z,102210.85
2019-02-12T02:47:48.698Z,102209.20
2019-02-12T02:48:52.187Z,102210.30
2019-02-12T02:49:55.781Z,102208.94
2019-02-12T02:50:59.276Z,102205.09
2019-02-12T02:52:02.778Z,102212.77
2019-02-12T02:53:06.294Z,102217.99
2019-02-12T02:54:09.789Z,102212.50
2019-02-12T02:55:13.291Z,102217.44
2019-02-12T02:56:16.795Z,102210.31
2019-02-12T02:57:20.303Z,102214.42
2019-02-12T02:58:23.827Z,102213.05
2019-02-12T02:59:27.314Z,102212.23
2019-02-12T03:00:30.878Z,102212.50
2019-02-12T03:01:34.514Z,102213.88
2019-02-12T03:02:38.153Z,102214.70
2019-02-12T03:03:41.674Z,102211.95
2019-02-12T03:04:45.163Z,102210.58
2019-02-12T03:05:48.728Z,102216.63
2019-02-12T03:06:52.276Z,102211.13
2019-02-12T03:07:55.768Z,102218.27
2019-02-12T03:08:59.291Z,102217.72
2019-02-12T03:10:03.153Z,102212.78
2019-02-12T03:11:08.288Z,102221.56
2019-02-12T03:12:11.841Z,102213.05
2019-02-12T03:13:15.402Z,102221.84
2019-02-12T03:14:19.004Z,102219.09
2019-02-12T03:15:22.517Z,102223.21
2019-02-12T03:16:26.033Z,102217.72
2019-02-12T03:17:29.542Z,102216.35
2019-02-12T03:18:33.022Z,102218.82
2019-02-12T03:19:36.570Z,102222.66
2019-02-12T03:20:40.131Z,102223.21
2019-02-12T03:21:43.614Z,102225.95
2019-02-12T03:22:47.181Z,102226.23
2019-02-12T03:23:50.702Z,102226.78
2019-02-12T03:24:54.307Z,102227.61
2019-02-12T03:25:57.809Z,102224.04
2019-02-12T03:27:01.293Z,102232.83
2019-02-12T03:28:04.926Z,102237.48
2019-02-12T03:29:08.496Z,102232.00
2019-02-12T03:30:12.982Z,102230.63
2019-02-12T03:31:16.593Z,102232.55
2019-02-12T03:32:20.078Z,102224.31
2019-02-12T03:33:23.578Z,102221.81
2019-02-12T03:34:27.083Z,102221.81
2019-02-12T03:35:30.590Z,102224.28
2019-02-12T03:36:34.164Z,102220.98
2019-02-12T03:37:37.784Z,102228.40
2019-02-12T03:38:41.340Z,102229.22
2019-02-12T03:39:44.897Z,102229.50
2019-02-12T03:40:48.413Z,102230.88
2019-02-12T03:41:51.906Z,102233.61
2019-02-12T03:42:55.439Z,102227.30
2019-02-12T03:43:58.939Z,102237.73
2019-02-12T03:45:02.428Z,102232.24
2019-02-12T03:46:05.965Z,102235.27
2019-02-12T03:47:09.453Z,102234.47
2019-02-12T03:48:12.961Z,102236.39
2019-02-12T03:49:16.564Z,102233.92
2019-02-12T03:50:20.100Z,102232.82
2019-02-12T03:51:23.678Z,102235.02
2019-02-12T03:52:27.260Z,102238.58
2019-02-12T03:53:30.836Z,102233.36
2019-02-12T03:54:34.508Z,102239.67
2019-02-12T03:55:38.070Z,102242.45
2019-02-12T03:56:41.747Z,102241.34
2019-02-12T03:57:45.313Z,102243.54
2019-02-12T03:58:48.799Z,102242.73
2019-02-12T03:59:52.376Z,102237.51
2019-02-12T04:00:56.036Z,102244.94
2019-02-12T04:01:59.617Z,102243.01
2019-02-12T04:03:08.361Z,102251.25
2019-02-12T04:04:12.095Z,102252.89
2019-02-12T04:05:15.719Z,102252.08
2019-02-12T04:06:19.227Z,102254.28
2019-02-12T04:07:22.747Z,102250.70
2019-02-12T04:08:26.308Z,102250.69
2019-02-12T04:09:29.883Z,102253.70
2019-02-12T04:10:33.533Z,102247.91
2019-02-12T04:11:37.095Z,102251.20
2019-02-12T04:12:40.615Z,102259.72
2019-02-12T04:13:44.101Z,102267.37
2019-02-12T04:14:47.622Z,102262.41
2019-02-12T04:15:51.206Z,102261.00
2019-02-12T04:16:54.772Z,102258.22
2019-02-12T04:17:58.493Z,102255.47
2019-02-12T04:19:02.017Z,102256.27
2019-02-12T04:20:06.054Z,102258.17
2019-02-12T04:21:09.628Z,102252.66
2019-02-12T04:22:21.911Z,102252.35
2019-02-12T04:23:18.518Z,102255.64
2019-02-12T04:24:22.023Z,102245.97
2019-02-12T04:25:25.521Z,102248.95
2019-02-12T04:26:29.159Z,102253.06
2019-02-12T04:27:32.652Z,102246.98
2019-02-12T04:28:37.449Z,102248.07
2019-02-12T04:29:40.949Z,102243.92
2019-02-12T04:30:44.424Z,102241.98
2019-02-12T04:31:47.913Z,102241.41
2019-02-12T04:32:51.406Z,102241.39
2019-02-12T04:33:54.928Z,102240.59
2019-02-12T04:34:58.440Z,102237.22
2019-02-12T04:36:02.002Z,102246.56
2019-02-12T04:37:05.498Z,102249.59
2019-02-12T04:38:08.994Z,102250.69
2019-02-12T04:39:12.524Z,102251.50
2019-02-12T04:40:16.067Z,102245.16
2019-02-12T04:41:19.573Z,102245.16
2019-02-12T04:42:23.137Z,102240.21
2019-02-12T04:43:26.770Z,102238.84
2019-02-12T04:44:30.268Z,102248.19
2019-02-12T04:45:33.788Z,102241.84
2019-02-12T04:46:37.299Z,102249.25
2019-02-12T04:47:40.783Z,102247.61
2019-02-12T04:48:44.308Z,102251.48
2019-02-12T04:49:47.808Z,102246.26
2019-02-12T04:50:51.290Z,102249.85
2019-02-12T04:51:54.807Z,102249.30
2019-02-12T04:52:58.355Z,102248.48
2019-02-12T04:54:01.947Z,102252.88
2019-02-12T04:55:07.343Z,102249.28
2019-02-12T04:56:10.817Z,102253.41
2019-02-12T04:57:14.331Z,102254.73
2019-02-12T04:58:17.792Z,102247.34
2019-02-12T04:59:21.374Z,102247.08
2019-02-12T05:00:25.010Z,102246.55
2019-02-12T05:01:28.673Z,102242.42
2019-02-12T05:02:32.189Z,102247.36
2019-02-12T05:03:35.698Z,102254.26
2019-02-12T05:04:39.261Z,102247.91
2019-02-12T05:05:42.786Z,102249.30
2019-02-12T05:06:46.460Z,102244.59
2019-02-12T05:07:49.997Z,102242.69
2019-02-12T05:09:13.649Z,102242.95
2019-02-12T05:10:29.322Z,102240.48
2019-02-12T05:11:32.864Z,102248.17
2019-02-12T05:12:36.415Z,102254.81
2019-02-12T05:13:39.890Z,102249.86
2019-02-12T05:14:43.472Z,102247.92
2019-02-12T05:15:46.963Z,102251.23
2019-02-12T05:16:50.537Z,102245.48
2019-02-12T05:17:54.125Z,102249.61
2019-02-12T05:18:57.600Z,102259.27
2019-02-12T05:20:01.124Z,102255.72
2019-02-12T05:21:04.642Z,102259.05
2019-02-12T05:22:08.153Z,102262.34
2019-02-12T05:23:11.802Z,102262.91
2019-02-12T05:24:15.352Z,102264.02
2019-02-12T05:25:22.214Z,102259.06
2019-02-12T05:26:25.864Z,102260.17
2019-02-12T05:27:29.438Z,102261.27
2019-02-12T05:28:32.953Z,102258.77
2019-02-12T05:29:36.446Z,102257.66
2019-02-12T05:30:39.935Z,102258.77
2019-02-12T05:31:43.524Z,102259.86
2019-02-12T05:32:47.111Z,102263.14
2019-02-12T05:33:50.722Z,102258.16
2019-02-12T05:34:55.896Z,102262.52
2019-02-12T05:35:59.459Z,102263.37
2019-02-12T05:37:02.984Z,102268.03
2019-02-12T05:38:06.508Z,102261.14
2019-02-12T05:39:10.128Z,102280.42
2019-02-12T05:40:13.768Z,102272.45
2019-02-12T05:41:17.400Z,102269.98
2019-02-12T05:42:28.244Z,102269.98
2019-02-12T05:43:31.796Z,102276.86
2019-02-12T05:44:35.310Z,102272.20
2019-02-12T05:45:38.916Z,102269.73
2019-02-12T05:46:42.400Z,102276.91
2019-02-12T05:47:45.931Z,102267.00
2019-02-12T05:48:49.543Z,102268.94
2019-02-12T05:49:53.018Z,102263.42
2019-02-12T05:50:56.509Z,102266.73
2019-02-12T05:52:00.021Z,102265.34
2019-02-12T05:53:03.601Z,102265.05
2019-02-12T05:54:07.222Z,102265.31
2019-02-12T05:55:11.108Z,102265.00
2019-02-12T05:56:14.783Z,102266.38
2019-02-12T05:57:18.265Z,102267.20
2019-02-12T05:58:21.844Z,102265.83
2019-02-12T05:59:25.400Z,102266.66
2019-02-12T06:00:30.615Z,102268.88
2019-02-12T06:01:34.095Z,102266.38
2019-02-12T06:02:37.583Z,102275.75
2019-02-12T06:03:41.130Z,102270.51
2019-02-12T06:04:44.650Z,102274.66
2019-02-12T06:05:48.134Z,102273.59
2019-02-12T06:06:51.687Z,102269.75
2019-02-12T06:07:55.317Z,102266.20
2019-02-12T06:08:58.898Z,102263.44
2019-02-12T06:10:02.492Z,102263.73
2019-02-12T06:11:07.742Z,102265.95
2019-02-12T06:12:11.218Z,102267.63
2019-02-12T06:13:14.740Z,102264.88
2019-02-12T06:14:18.302Z,102268.48
2019-02-12T06:15:21.956Z,102270.96
2019-02-12T06:16:25.475Z,102267.67
2019-02-12T06:17:28.947Z,102268.23
2019-02-12T06:18:32.457Z,102267.94
2019-02-12T06:19:35.963Z,102267.94
2019-02-12T06:20:39.453Z,102264.08
2019-02-12T06:21:42.958Z,102270.37
2019-02-12T06:22:46.450Z,102275.85
2019-02-12T06:23:50.024Z,102272.81
2019-02-12T06:24:53.551Z,102271.71
2019-02-12T06:25:57.043Z,102278.30
2019-02-12T06:27:00.535Z,102270.60
2019-02-12T06:28:04.013Z,102274.45
2019-02-12T06:29:07.499Z,102271.94
2019-02-12T06:30:11.364Z,102273.02
2019-02-12T06:31:14.844Z,102273.58
2019-02-12T06:32:18.337Z,102272.47
2019-02-12T06:33:21.841Z,102270.83
2019-02-12T06:34:25.347Z,102266.16
2019-02-12T06:35:28.887Z,102272.78
2019-02-12T06:36:32.420Z,102269.73
2019-02-12T06:37:35.910Z,102264.54
2019-02-12T06:38:39.482Z,102271.95
2019-02-12T06:39:42.970Z,102273.36
2019-02-12T06:40:46.522Z,102283.28
2019-02-12T06:41:50.020Z,102278.59
2019-02-12T06:42:53.595Z,102280.80
2019-02-12T06:43:57.171Z,102279.12
2019-02-12T06:45:00.847Z,102279.95
2019-02-12T06:46:04.542Z,102274.16
2019-02-12T06:47:08.039Z,102279.93
2019-02-12T06:48:11.591Z,102283.77
2019-02-12T06:49:15.167Z,102285.70
2019-02-12T06:50:18.678Z,102286.53
2019-02-12T06:51:22.183Z,102283.22
2019-02-12T06:52:25.825Z,102288.73
2019-02-12T06:53:29.373Z,102291.77
2019-02-12T06:54:32.926Z,102293.97
2019-02-12T06:55:36.698Z,102290.68
2019-02-12T06:56:40.259Z,102295.94
2019-02-12T06:57:51.801Z,102292.66
2019-02-12T06:58:55.457Z,102294.28
2019-02-12T06:59:58.997Z,102297.06
2019-02-12T07:01:02.631Z,102306.44
2019-02-12T07:02:42.206Z,102306.97
2019-02-12T07:03:57.289Z,102305.03
2019-02-12T07:05:00.808Z,102308.63
2019-02-12T07:06:07.425Z,102312.73
2019-02-12T07:07:22.775Z,102313.29
2019-02-12T07:08:32.203Z,102317.16
2019-02-12T07:09:38.752Z,102319.07
2019-02-12T07:10:42.262Z,102323.77
2019-02-12T07:12:16.135Z,102328.71
2019-02-12T07:13:28.593Z,102327.06
2019-02-12T07:14:53.022Z,102323.24
2019-02-12T07:15:57.265Z,102332.06
2019-02-12T07:17:18.800Z,102326.84
2019-02-12T07:18:31.361Z,102327.39
2019-02-12T07:19:40.814Z,102329.32
2019-02-12T07:20:47.398Z,102329.34
2019-02-12T07:21:53.933Z,102329.89
2019-02-12T07:23:21.611Z,102333.45
2019-02-12T07:24:33.885Z,102334.83
2019-02-12T07:25:52.395Z,102339.21
2019-02-12T07:27:07.763Z,102340.59
2019-02-12T07:28:26.297Z,102341.67
2019-02-12T07:29:48.824Z,102350.76
2019-02-12T07:31:07.230Z,102346.92
2019-02-12T07:32:16.421Z,102350.23
2019-02-12T07:33:34.758Z,102348.84
2019-02-12T07:34:53.011Z,102350.80
2019-02-12T07:36:17.424Z,102351.91
2019-02-12T07:37:35.693Z,102360.18
2019-02-12T07:38:54.045Z,102359.36
2019-02-12T07:40:09.674Z,102375.33
2019-02-12T07:41:32.685Z,102376.15
2019-02-12T07:43:00.034Z,102377.52
2019-02-12T07:44:09.154Z,102384.67
2019-02-12T07:45:27.635Z,102379.16
2019-02-12T07:46:43.202Z,102379.99
2019-02-12T07:47:55.474Z,102376.70
2019-02-12T07:49:21.209Z,102380.55
2019-02-12T07:50:48.870Z,102381.38
2019-02-12T07:51:58.289Z,102381.92
2019-02-12T07:53:04.884Z,102387.98
2019-02-12T07:54:26.198Z,102388.83
2019-02-12T07:55:51.504Z,102397.37
2019-02-12T07:57:30.957Z,102401.75
2019-02-12T07:58:40.223Z,102404.50
2019-02-12T08:00:05.931Z,102406.16
2019-02-12T08:01:28.817Z,102410.02
2019-02-12T08:02:44.225Z,102397.64
2019-02-12T08:04:07.326Z,102405.61
2019-02-12T08:05:48.313Z,102407.81
2019-02-12T08:07:12.231Z,102417.98
2019-02-12T08:08:36.659Z,102420.47
2019-02-12T08:09:48.534Z,102419.38
2019-02-12T08:10:55.100Z,102422.13
2019-02-12T08:12:07.048Z,102414.71
2019-02-12T08:13:19.118Z,102422.97
2019-02-12T08:14:34.566Z,102425.16
2019-02-12T08:15:56.271Z,102426.27
2019-02-12T08:17:11.180Z,102430.95
2019-02-12T08:18:26.498Z,102424.34
2019-02-12T08:19:53.719Z,102429.84
2019-02-12T08:21:27.302Z,102425.99
2019-02-12T08:22:33.849Z,102432.88
2019-02-12T08:23:59.482Z,102433.16
2019-02-12T08:25:12.031Z,102437.01
2019-02-12T08:26:24.145Z,102434.53
2019-02-12T08:27:51.496Z,102438.12
2019-02-12T08:29:03.752Z,102430.95
2019-02-12T08:30:24.999Z,102438.12
2019-02-12T08:31:37.099Z,102428.17
2019-02-12T08:32:49.633Z,102427.66
2019-02-12T08:34:04.378Z,102428.47
2019-02-12T08:35:33.277Z,102430.41
2019-02-12T08:36:39.832Z,102431.52
2019-02-12T08:38:02.719Z,102431.78
2019-02-12T08:39:36.180Z,102429.86
2019-02-12T08:40:42.806Z,102433.98
2019-02-12T08:42:01.170Z,102434.53
2019-02-12T08:43:22.475Z,102437.55
2019-02-12T08:44:50.991Z,102437.81
2019-02-12T08:46:09.310Z,102437.55
2019-02-12T08:47:18.351Z,102441.42
2019-02-12T08:48:24.931Z,102440.05
2019-02-12T08:49:43.435Z,102440.57
2019-02-12T08:51:04.361Z,102444.42
2019-02-12T08:52:31.215Z,102440.85
2019-02-12T08:54:00.209Z,102440.59
2019-02-12T08:55:12.441Z,102449.95
2019-02-12T08:56:30.913Z,102448.31
2019-02-12T08:57:43.372Z,102451.34
2019-02-12T08:59:09.209Z,102452.44
2019-02-12T09:00:27.695Z,102450.52
2019-02-12T09:01:37.290Z,102453.25
2019-02-12T09:03:02.006Z,102453.52
2019-02-12T09:04:08.553Z,102453.27
2019-02-12T09:05:20.992Z,102455.19
2019-02-12T09:06:46.865Z,102455.46
2019-02-12T09:07:55.993Z,102458.77
2019-02-12T09:09:28.015Z,102457.39
2019-02-12T09:10:40.135Z,102460.39
2019-02-12T09:12:01.660Z,102461.52
2019-02-12T09:13:24.259Z,102456.00
2019-02-12T09:14:48.578Z,102467.03
2019-02-12T09:16:20.761Z,102471.71
2019-02-12T09:17:43.893Z,102469.24
2019-02-12T09:19:23.447Z,102462.34
2019-02-12T09:20:44.789Z,102464.52
2019-02-12T09:22:07.299Z,102467.28
2019-02-12T09:23:39.217Z,102469.78
2019-02-12T09:24:57.769Z,102471.96
2019-02-12T09:26:28.343Z,102467.56
2019-02-12T09:28:00.202Z,102470.58
2019-02-12T09:29:21.557Z,102468.66
2019-02-12T09:30:57.412Z,102478.59
2019-02-12T09:32:38.769Z,102483.00
2019-02-12T09:34:00.223Z,102486.59
2019-02-12T09:35:18.737Z,102481.91
2019-02-12T09:36:31.074Z,102483.01
2019-02-12T09:38:07.642Z,102483.56
2019-02-12T09:39:14.201Z,102486.30
2019-02-12T09:40:41.695Z,102487.13
2019-02-12T09:41:48.265Z,102489.05
2019-02-12T09:43:16.190Z,102484.63
2019-02-12T09:44:31.238Z,102483.80
2019-02-12T09:45:59.912Z,102484.91
2019-02-12T09:47:09.158Z,102489.31
2019-02-12T09:48:24.314Z,102489.88
2019-02-12T09:49:33.589Z,102495.66
2019-02-12T09:50:42.764Z,102493.73
2019-02-12T09:52:12.654Z,102493.45
2019-02-12T09:53:27.898Z,102489.89
2019-02-12T09:54:40.410Z,102493.20
2019-02-12T09:55:58.867Z,102493.47
2019-02-12T09:57:13.904Z,102496.48
2019-02-12T09:58:39.743Z,102493.19
2019-02-12T09:59:55.031Z,102496.20
2019-02-12T10:01:07.569Z,102500.63
2019-02-12T10:02:25.272Z,102500.33
2019-02-12T10:03:55.679Z,102499.77
2019-02-12T10:05:13.938Z,102497.30
2019-02-12T10:06:35.541Z,102495.38
2019-02-12T10:07:47.756Z,102500.33
2019-02-12T10:09:10.682Z,102488.50
2019-02-12T10:10:45.592Z,102497.59
2019-02-12T10:12:08.723Z,102492.92
2019-02-12T10:13:26.953Z,102495.67
2019-02-12T10:14:58.789Z,102493.76
2019-02-12T10:16:17.341Z,102497.59
2019-02-12T10:17:26.353Z,102498.14
2019-02-12T10:18:47.469Z,102497.58
2019-02-12T10:20:25.483Z,102503.08
2019-02-12T10:21:47.042Z,102499.77
2019-02-12T10:23:06.522Z,102503.63
2019-02-12T10:24:19.816Z,102509.95
2019-02-12T10:25:23.011Z,102502.53
2019-02-12T10:26:29.663Z,102502.53
2019-02-12T10:27:59.382Z,102504.19
2019-02-12T10:29:05.923Z,102506.12
2019-02-12T10:30:36.468Z,102503.66
2019-02-12T10:31:41.820Z,102498.43
2019-02-12T10:32:45.342Z,102495.95
2019-02-12T10:33:48.949Z,102496.78
2019-02-12T10:34:52.448Z,102500.09
2019-02-12T10:35:56.012Z,102497.05
2019-02-12T10:36:59.576Z,102498.97
2019-02-12T10:38:03.146Z,102497.31
2019-02-12T10:39:10.830Z,102505.30
2019-02-12T10:40:14.525Z,102509.69
2019-02-12T10:41:18.098Z,102506.38
2019-02-12T10:42:21.659Z,102503.63
2019-02-12T10:43:25.221Z,102507.77
2019-02-12T10:44:28.720Z,102507.20
2019-02-12T10:45:32.359Z,102502.25
2019-02-12T10:46:35.925Z,102504.73
2019-02-12T10:47:39.479Z,102506.67
2019-02-12T10:48:43.058Z,102497.59
2019-02-12T10:49:46.677Z,102502.83
2019-02-12T10:50:50.234Z,102497.05
2019-02-12T10:51:53.796Z,102498.16
2019-02-12T10:52:57.297Z,102501.45
2019-02-12T10:54:00.780Z,102496.78
2019-02-12T10:55:05.154Z,102503.38
2019-02-12T10:56:08.785Z,102495.66
2019-02-12T10:57:12.301Z,102498.41
2019-02-12T10:58:15.778Z,102501.98
2019-02-12T10:59:19.339Z,102499.23
2019-02-12T11:00:22.872Z,102508.31
2019-02-12T11:01:26.419Z,102505.30
2019-02-12T11:02:29.929Z,102510.80
2019-02-12T11:03:33.500Z,102505.84
2019-02-12T11:04:37.069Z,102503.09
2019-02-12T11:05:40.661Z,102503.38
2019-02-12T11:06:44.189Z,102507.23
2019-02-12T11:07:47.733Z,102508.06
2019-02-12T11:08:51.232Z,102502.28
2019-02-12T11:09:54.722Z,102503.39
2019-02-12T11:10:58.247Z,102496.80
2019-02-12T11:12:01.736Z,102500.09
2019-02-12T11:13:05.308Z,102497.05
2019-02-12T11:14:08.866Z,102493.47
2019-02-12T11:15:12.697Z,102492.09
2019-02-12T11:16:16.304Z,102492.91
2019-02-12T11:17:19.789Z,102500.87
2019-02-12T11:18:23.290Z,102498.41
2019-02-12T11:19:26.796Z,102497.03
2019-02-12T11:20:30.439Z,102496.75
2019-02-12T11:21:33.968Z,102495.39
2019-02-12T11:22:37.688Z,102498.14
2019-02-12T11:23:41.191Z,102496.77
2019-02-12T11:24:44.854Z,102492.91
2019-02-12T11:25:48.345Z,102496.50
2019-02-12T11:26:51.938Z,102497.33
2019-02-12T11:27:55.555Z,102495.41
2019-02-12T11:28:59.074Z,102492.38
2019-02-12T11:30:02.644Z,102494.86
2019-02-12T11:31:07.907Z,102490.73
2019-02-12T11:32:11.488Z,102488.25
2019-02-12T11:33:15.009Z,102496.78
2019-02-12T11:34:18.577Z,102486.31
2019-02-12T11:35:22.212Z,102483.28
2019-02-12T11:36:25.773Z,102481.90
2019-02-12T11:37:29.295Z,102488.77
2019-02-12T11:38:32.953Z,102485.75
2019-02-12T11:39:36.542Z,102480.52
2019-02-12T11:40:40.123Z,102481.63
2019-02-12T11:41:43.633Z,102483.28
2019-02-12T11:42:47.137Z,102479.43
2019-02-12T11:43:50.657Z,102480.81
2019-02-12T11:44:54.134Z,102483.56
2019-02-12T11:45:57.624Z,102488.52
2019-02-12T11:47:01.117Z,102487.14
2019-02-12T11:48:04.731Z,102484.13
2019-02-12T11:49:08.297Z,102489.64
2019-02-12T11:50:12.029Z,102484.38
2019-02-12T11:51:15.517Z,102485.22
2019-02-12T11:52:19.007Z,102486.05
2019-02-12T11:53:22.616Z,102479.72
2019-02-12T11:54:26.169Z,102483.59
2019-02-12T11:55:29.685Z,102484.39
2019-02-12T11:56:33.256Z,102487.97
2019-02-12T11:57:36.874Z,102486.59
2019-02-12T11:58:40.770Z,102484.09
2019-02-12T11:59:44.493Z,102492.35
2019-02-12T12:00:49.630Z,102488.23
2019-02-12T12:01:53.129Z,102492.08
2019-02-12T12:02:56.679Z,102486.32
2019-02-12T12:04:00.273Z,102488.80
2019-02-12T12:05:03.920Z,102484.96
2019-02-12T12:06:07.417Z,102485.48
2019-02-12T12:07:10.904Z,102488.26
2019-02-12T12:08:14.405Z,102485.77
2019-02-12T12:09:18.016Z,102487.13
2019-02-12T12:10:21.574Z,102490.16
2019-02-12T12:11:25.066Z,102491.55
2019-02-12T12:12:28.570Z,102488.80
2019-02-12T12:13:32.086Z,102490.17
2019-02-12T12:14:35.665Z,102484.10
2019-02-12T12:15:39.169Z,102487.67
2019-02-12T12:16:42.668Z,102489.34
2019-02-12T12:17:46.207Z,102488.23
2019-02-12T12:18:49.711Z,102486.03
2019-02-12T12:19:53.261Z,102485.48
2019-02-12T12:20:56.774Z,102485.48
2019-02-12T12:22:00.252Z,102485.77
2019-02-12T12:23:03.834Z,102486.04
2019-02-12T12:24:07.381Z,102487.42
2019-02-12T12:25:12.104Z,102481.36
2019-02-12T12:26:15.616Z,102482.45
2019-02-12T12:27:19.144Z,102475.02
2019-02-12T12:28:22.612Z,102477.48
2019-02-12T12:29:26.234Z,102476.95
2019-02-12T12:30:29.729Z,102475.29
2019-02-12T12:31:33.243Z,102475.28
2019-02-12T12:32:36.849Z,102474.17
2019-02-12T12:33:40.342Z,102470.33
2019-02-12T12:34:44.024Z,102469.23
2019-02-12T12:35:47.507Z,102471.71
2019-02-12T12:36:51.054Z,102478.59
2019-02-12T12:37:54.627Z,102468.42
2019-02-12T12:38:58.182Z,102471.18
2019-02-12T12:40:01.789Z,102467.32
2019-02-12T12:41:06.600Z,102468.16
2019-02-12T12:42:10.067Z,102469.27
2019-02-12T12:43:13.582Z,102471.73
2019-02-12T12:44:17.063Z,102468.16
2019-02-12T12:45:20.634Z,102473.38
2019-02-12T12:46:24.207Z,102475.57
2019-02-12T12:47:27.692Z,102465.39